sensor_id;sensor_type;location;lat;lon;timestamp;P1;durP1;ratioP1;P2;durP2;ratioP2
77597;SDS011;66756;42.774;23.354;2023-04-24T00:00:59;6.15;;;5.03;;
77597;SDS011;66756;42.774;23.354;2023-04-24T00:03:26;6.55;;;4.15;;
77597;SDS011;66756;42.774;23.354;2023-04-24T00:05:53;7.65;;;5.30;;
77597;SDS011;66756;42.774;23.354;2023-04-24T00:08:19;6.32;;;4.53;;
77597;SDS011;66756;42.774;23.354;2023-04-24T00:10:46;7.93;;;6.35;;
77597;SDS011;66756;42.774;23.354;2023-04-24T00:13:12;6.80;;;4.85;;
77597;SDS011;66756;42.774;23.354;2023-04-24T00:15:38;8.73;;;5.38;;
77597;SDS011;66756;42.774;23.354;2023-04-24T00:18:04;7.28;;;4.03;;
77597;SDS011;66756;42.774;23.354;2023-04-24T00:20:30;9.55;;;4.45;;
77597;SDS011;66756;42.774;23.354;2023-04-24T00:23:00;7.75;;;4.32;;
77597;SDS011;66756;42.774;23.354;2023-04-24T00:25:26;6.60;;;4.25;;
77597;SDS011;66756;42.774;23.354;2023-04-24T00:27:52;7.22;;;4.22;;
77597;SDS011;66756;42.774;23.354;2023-04-24T00:30:18;6.32;;;5.10;;
77597;SDS011;66756;42.774;23.354;2023-04-24T00:32:44;5.40;;;4.50;;
77597;SDS011;66756;42.774;23.354;2023-04-24T00:35:10;7.75;;;3.53;;
77597;SDS011;66756;42.774;23.354;2023-04-24T00:37:36;9.25;;;3.75;;
77597;SDS011;66756;42.774;23.354;2023-04-24T00:40:02;4.43;;;3.45;;
77597;SDS011;66756;42.774;23.354;2023-04-24T00:42:29;6.63;;;3.75;;
77597;SDS011;66756;42.774;23.354;2023-04-24T00:44:55;8.95;;;4.18;;
77597;SDS011;66756;42.774;23.354;2023-04-24T00:47:22;8.57;;;5.00;;
77597;SDS011;66756;42.774;23.354;2023-04-24T00:49:48;6.25;;;4.65;;
77597;SDS011;66756;42.774;23.354;2023-04-24T00:52:14;7.53;;;5.32;;
77597;SDS011;66756;42.774;23.354;2023-04-24T00:54:43;7.90;;;4.35;;
77597;SDS011;66756;42.774;23.354;2023-04-24T00:57:10;5.00;;;3.58;;
77597;SDS011;66756;42.774;23.354;2023-04-24T00:59:36;6.05;;;4.75;;
77597;SDS011;66756;42.774;23.354;2023-04-24T01:02:03;7.20;;;4.78;;
77597;SDS011;66756;42.774;23.354;2023-04-24T01:04:29;9.27;;;5.03;;
77597;SDS011;66756;42.774;23.354;2023-04-24T01:06:55;6.55;;;3.97;;
77597;SDS011;66756;42.774;23.354;2023-04-24T01:09:22;5.72;;;3.40;;
77597;SDS011;66756;42.774;23.354;2023-04-24T01:11:49;6.85;;;3.75;;
77597;SDS011;66756;42.774;23.354;2023-04-24T01:14:16;8.20;;;4.32;;
77597;SDS011;66756;42.774;23.354;2023-04-24T01:16:42;6.28;;;4.75;;
77597;SDS011;66756;42.774;23.354;2023-04-24T01:19:08;5.97;;;5.00;;
77597;SDS011;66756;42.774;23.354;2023-04-24T01:21:36;7.07;;;4.35;;
77597;SDS011;66756;42.774;23.354;2023-04-24T01:24:03;10.18;;;7.43;;
77597;SDS011;66756;42.774;23.354;2023-04-24T01:26:29;8.82;;;4.45;;
77597;SDS011;66756;42.774;23.354;2023-04-24T01:28:55;7.97;;;5.10;;
77597;SDS011;66756;42.774;23.354;2023-04-24T01:31:21;11.98;;;6.05;;
77597;SDS011;66756;42.774;23.354;2023-04-24T01:33:48;7.97;;;5.95;;
77597;SDS011;66756;42.774;23.354;2023-04-24T01:36:15;9.23;;;5.85;;
77597;SDS011;66756;42.774;23.354;2023-04-24T01:38:42;9.15;;;6.47;;
77597;SDS011;66756;42.774;23.354;2023-04-24T01:41:08;8.70;;;5.97;;
77597;SDS011;66756;42.774;23.354;2023-04-24T01:43:34;8.13;;;6.40;;
77597;SDS011;66756;42.774;23.354;2023-04-24T01:46:00;6.93;;;4.03;;
77597;SDS011;66756;42.774;23.354;2023-04-24T01:48:26;6.93;;;4.57;;
77597;SDS011;66756;42.774;23.354;2023-04-24T01:50:52;7.63;;;4.50;;
77597;SDS011;66756;42.774;23.354;2023-04-24T01:53:18;8.23;;;5.13;;
77597;SDS011;66756;42.774;23.354;2023-04-24T01:55:45;8.73;;;5.90;;
77597;SDS011;66756;42.774;23.354;2023-04-24T01:58:11;6.75;;;4.53;;
77597;SDS011;66756;42.774;23.354;2023-04-24T02:00:37;8.57;;;4.57;;
77597;SDS011;66756;42.774;23.354;2023-04-24T02:03:03;7.07;;;4.70;;
77597;SDS011;66756;42.774;23.354;2023-04-24T02:05:29;6.15;;;4.50;;
77597;SDS011;66756;42.774;23.354;2023-04-24T02:07:55;7.95;;;3.97;;
77597;SDS011;66756;42.774;23.354;2023-04-24T02:10:21;8.20;;;4.53;;
77597;SDS011;66756;42.774;23.354;2023-04-24T02:12:47;8.85;;;4.80;;
77597;SDS011;66756;42.774;23.354;2023-04-24T02:15:13;10.00;;;4.25;;
77597;SDS011;66756;42.774;23.354;2023-04-24T02:17:40;6.35;;;4.50;;
77597;SDS011;66756;42.774;23.354;2023-04-24T02:20:06;6.10;;;4.25;;
77597;SDS011;66756;42.774;23.354;2023-04-24T02:22:32;8.27;;;5.05;;
77597;SDS011;66756;42.774;23.354;2023-04-24T02:24:58;7.57;;;6.78;;
77597;SDS011;66756;42.774;23.354;2023-04-24T02:27:25;8.35;;;5.15;;
77597;SDS011;66756;42.774;23.354;2023-04-24T02:29:51;7.10;;;5.28;;
77597;SDS011;66756;42.774;23.354;2023-04-24T02:32:17;8.30;;;4.60;;
77597;SDS011;66756;42.774;23.354;2023-04-24T02:34:43;6.95;;;4.65;;
77597;SDS011;66756;42.774;23.354;2023-04-24T02:37:09;5.28;;;3.20;;
77597;SDS011;66756;42.774;23.354;2023-04-24T02:39:35;5.68;;;3.45;;
77597;SDS011;66756;42.774;23.354;2023-04-24T02:42:01;5.00;;;3.50;;
77597;SDS011;66756;42.774;23.354;2023-04-24T02:44:27;7.57;;;3.95;;
77597;SDS011;66756;42.774;23.354;2023-04-24T02:46:53;6.47;;;3.88;;
77597;SDS011;66756;42.774;23.354;2023-04-24T02:49:19;5.90;;;3.72;;
77597;SDS011;66756;42.774;23.354;2023-04-24T02:51:45;6.45;;;3.80;;
77597;SDS011;66756;42.774;23.354;2023-04-24T02:54:11;7.53;;;4.13;;
77597;SDS011;66756;42.774;23.354;2023-04-24T02:56:37;6.72;;;4.03;;
77597;SDS011;66756;42.774;23.354;2023-04-24T02:59:03;7.43;;;5.00;;
77597;SDS011;66756;42.774;23.354;2023-04-24T03:01:30;8.55;;;4.28;;
77597;SDS011;66756;42.774;23.354;2023-04-24T03:03:56;7.13;;;4.38;;
77597;SDS011;66756;42.774;23.354;2023-04-24T03:06:23;7.38;;;4.13;;
77597;SDS011;66756;42.774;23.354;2023-04-24T03:08:48;5.78;;;3.95;;
77597;SDS011;66756;42.774;23.354;2023-04-24T03:11:14;7.90;;;4.30;;
77597;SDS011;66756;42.774;23.354;2023-04-24T03:13:40;7.85;;;4.55;;
77597;SDS011;66756;42.774;23.354;2023-04-24T03:16:06;9.65;;;5.15;;
77597;SDS011;66756;42.774;23.354;2023-04-24T03:18:32;10.57;;;5.10;;
77597;SDS011;66756;42.774;23.354;2023-04-24T03:20:58;7.60;;;4.63;;
77597;SDS011;66756;42.774;23.354;2023-04-24T03:23:24;8.65;;;4.80;;
77597;SDS011;66756;42.774;23.354;2023-04-24T03:25:50;8.40;;;4.90;;
77597;SDS011;66756;42.774;23.354;2023-04-24T03:28:17;9.27;;;4.82;;
77597;SDS011;66756;42.774;23.354;2023-04-24T03:30:43;8.95;;;4.90;;
77597;SDS011;66756;42.774;23.354;2023-04-24T03:33:09;10.68;;;6.40;;
77597;SDS011;66756;42.774;23.354;2023-04-24T03:35:35;6.50;;;4.18;;
77597;SDS011;66756;42.774;23.354;2023-04-24T03:38:01;8.85;;;5.53;;
77597;SDS011;66756;42.774;23.354;2023-04-24T03:40:32;7.30;;;5.20;;
77597;SDS011;66756;42.774;23.354;2023-04-24T03:42:58;9.05;;;5.28;;
77597;SDS011;66756;42.774;23.354;2023-04-24T03:45:24;7.13;;;4.82;;
77597;SDS011;66756;42.774;23.354;2023-04-24T03:47:50;10.43;;;5.90;;
77597;SDS011;66756;42.774;23.354;2023-04-24T03:50:16;10.52;;;5.50;;
77597;SDS011;66756;42.774;23.354;2023-04-24T03:52:42;9.27;;;5.97;;
77597;SDS011;66756;42.774;23.354;2023-04-24T03:55:08;8.93;;;5.38;;
77597;SDS011;66756;42.774;23.354;2023-04-24T03:57:37;11.40;;;5.38;;
77597;SDS011;66756;42.774;23.354;2023-04-24T04:00:03;9.82;;;6.18;;
77597;SDS011;66756;42.774;23.354;2023-04-24T04:02:30;8.38;;;5.35;;
77597;SDS011;66756;42.774;23.354;2023-04-24T04:04:56;12.07;;;6.80;;
77597;SDS011;66756;42.774;23.354;2023-04-24T04:07:22;8.77;;;5.15;;
77597;SDS011;66756;42.774;23.354;2023-04-24T04:09:48;10.27;;;6.05;;
77597;SDS011;66756;42.774;23.354;2023-04-24T04:12:14;8.85;;;4.88;;
77597;SDS011;66756;42.774;23.354;2023-04-24T04:14:40;9.38;;;7.97;;
77597;SDS011;66756;42.774;23.354;2023-04-24T04:17:06;6.60;;;4.85;;
77597;SDS011;66756;42.774;23.354;2023-04-24T04:19:32;10.77;;;5.32;;
77597;SDS011;66756;42.774;23.354;2023-04-24T04:21:58;7.13;;;6.25;;
77597;SDS011;66756;42.774;23.354;2023-04-24T04:24:24;8.82;;;6.88;;
77597;SDS011;66756;42.774;23.354;2023-04-24T04:26:51;9.82;;;6.38;;
77597;SDS011;66756;42.774;23.354;2023-04-24T04:29:17;6.68;;;5.55;;
77597;SDS011;66756;42.774;23.354;2023-04-24T04:31:44;6.90;;;6.20;;
77597;SDS011;66756;42.774;23.354;2023-04-24T04:34:10;6.00;;;5.28;;
77597;SDS011;66756;42.774;23.354;2023-04-24T04:36:37;7.10;;;5.95;;
77597;SDS011;66756;42.774;23.354;2023-04-24T04:39:05;6.95;;;5.68;;
77597;SDS011;66756;42.774;23.354;2023-04-24T04:41:31;6.03;;;5.43;;
77597;SDS011;66756;42.774;23.354;2023-04-24T04:43:57;7.10;;;5.50;;
77597;SDS011;66756;42.774;23.354;2023-04-24T04:46:23;8.90;;;7.72;;
77597;SDS011;66756;42.774;23.354;2023-04-24T04:48:51;9.25;;;7.55;;
77597;SDS011;66756;42.774;23.354;2023-04-24T04:51:17;11.50;;;8.07;;
77597;SDS011;66756;42.774;23.354;2023-04-24T04:53:43;9.88;;;8.02;;
77597;SDS011;66756;42.774;23.354;2023-04-24T04:56:09;10.05;;;7.38;;
77597;SDS011;66756;42.774;23.354;2023-04-24T04:58:35;10.18;;;7.78;;
77597;SDS011;66756;42.774;23.354;2023-04-24T05:01:01;9.90;;;7.35;;
77597;SDS011;66756;42.774;23.354;2023-04-24T05:03:28;9.80;;;6.05;;
77597;SDS011;66756;42.774;23.354;2023-04-24T05:05:54;8.80;;;6.93;;
77597;SDS011;66756;42.774;23.354;2023-04-24T05:08:20;10.40;;;8.15;;
77597;SDS011;66756;42.774;23.354;2023-04-24T05:10:46;8.90;;;7.07;;
77597;SDS011;66756;42.774;23.354;2023-04-24T05:13:12;11.10;;;7.93;;
77597;SDS011;66756;42.774;23.354;2023-04-24T05:15:38;9.63;;;6.70;;
77597;SDS011;66756;42.774;23.354;2023-04-24T05:18:04;8.38;;;6.53;;
77597;SDS011;66756;42.774;23.354;2023-04-24T05:20:30;12.10;;;5.57;;
77597;SDS011;66756;42.774;23.354;2023-04-24T05:22:56;8.77;;;6.18;;
77597;SDS011;66756;42.774;23.354;2023-04-24T05:25:22;9.63;;;5.95;;
77597;SDS011;66756;42.774;23.354;2023-04-24T05:27:48;8.15;;;4.80;;
77597;SDS011;66756;42.774;23.354;2023-04-24T05:30:14;8.73;;;7.25;;
77597;SDS011;66756;42.774;23.354;2023-04-24T05:32:40;6.90;;;4.65;;
77597;SDS011;66756;42.774;23.354;2023-04-24T05:35:06;6.82;;;5.70;;
77597;SDS011;66756;42.774;23.354;2023-04-24T05:37:32;8.82;;;6.20;;
77597;SDS011;66756;42.774;23.354;2023-04-24T05:39:58;6.97;;;5.82;;
77597;SDS011;66756;42.774;23.354;2023-04-24T05:42:24;7.97;;;6.97;;
77597;SDS011;66756;42.774;23.354;2023-04-24T05:44:51;11.18;;;4.78;;
77597;SDS011;66756;42.774;23.354;2023-04-24T05:47:19;8.48;;;4.53;;
77597;SDS011;66756;42.774;23.354;2023-04-24T05:49:46;10.02;;;6.90;;
77597;SDS011;66756;42.774;23.354;2023-04-24T05:52:12;8.27;;;6.97;;
77597;SDS011;66756;42.774;23.354;2023-04-24T05:54:38;11.55;;;5.70;;
77597;SDS011;66756;42.774;23.354;2023-04-24T05:57:04;9.00;;;7.43;;
77597;SDS011;66756;42.774;23.354;2023-04-24T05:59:33;10.98;;;7.20;;
77597;SDS011;66756;42.774;23.354;2023-04-24T06:01:59;9.20;;;5.78;;
77597;SDS011;66756;42.774;23.354;2023-04-24T06:04:25;8.18;;;5.55;;
77597;SDS011;66756;42.774;23.354;2023-04-24T06:06:51;8.10;;;5.70;;
77597;SDS011;66756;42.774;23.354;2023-04-24T06:09:21;9.85;;;5.60;;
77597;SDS011;66756;42.774;23.354;2023-04-24T06:11:47;7.97;;;6.88;;
77597;SDS011;66756;42.774;23.354;2023-04-24T06:14:13;7.95;;;5.82;;
77597;SDS011;66756;42.774;23.354;2023-04-24T06:16:42;12.57;;;6.50;;
77597;SDS011;66756;42.774;23.354;2023-04-24T06:19:09;9.10;;;5.53;;
77597;SDS011;66756;42.774;23.354;2023-04-24T06:21:35;7.75;;;4.40;;
77597;SDS011;66756;42.774;23.354;2023-04-24T06:24:01;4.88;;;4.32;;
77597;SDS011;66756;42.774;23.354;2023-04-24T06:26:27;5.78;;;4.97;;
77597;SDS011;66756;42.774;23.354;2023-04-24T06:28:53;6.75;;;4.97;;
77597;SDS011;66756;42.774;23.354;2023-04-24T06:31:19;6.50;;;5.47;;
77597;SDS011;66756;42.774;23.354;2023-04-24T06:33:46;6.05;;;5.32;;
77597;SDS011;66756;42.774;23.354;2023-04-24T06:36:12;5.97;;;4.63;;
77597;SDS011;66756;42.774;23.354;2023-04-24T06:38:38;6.05;;;4.85;;
77597;SDS011;66756;42.774;23.354;2023-04-24T06:41:04;9.15;;;5.43;;
77597;SDS011;66756;42.774;23.354;2023-04-24T06:43:30;5.28;;;4.55;;
77597;SDS011;66756;42.774;23.354;2023-04-24T06:45:57;5.72;;;4.85;;
77597;SDS011;66756;42.774;23.354;2023-04-24T06:48:23;7.07;;;4.80;;
77597;SDS011;66756;42.774;23.354;2023-04-24T06:50:50;7.25;;;5.97;;
77597;SDS011;66756;42.774;23.354;2023-04-24T06:53:16;6.38;;;5.60;;
77597;SDS011;66756;42.774;23.354;2023-04-24T06:55:42;6.43;;;4.78;;
77597;SDS011;66756;42.774;23.354;2023-04-24T06:58:11;5.53;;;3.33;;
77597;SDS011;66756;42.774;23.354;2023-04-24T07:00:37;6.13;;;4.60;;
77597;SDS011;66756;42.774;23.354;2023-04-24T07:03:03;5.30;;;4.78;;
77597;SDS011;66756;42.774;23.354;2023-04-24T07:05:32;8.13;;;6.15;;
77597;SDS011;66756;42.774;23.354;2023-04-24T07:08:02;8.25;;;5.75;;
77597;SDS011;66756;42.774;23.354;2023-04-24T07:10:28;5.22;;;3.67;;
77597;SDS011;66756;42.774;23.354;2023-04-24T07:12:55;6.90;;;4.30;;
77597;SDS011;66756;42.774;23.354;2023-04-24T07:15:21;5.53;;;4.30;;
77597;SDS011;66756;42.774;23.354;2023-04-24T07:17:48;6.20;;;4.32;;
77597;SDS011;66756;42.774;23.354;2023-04-24T07:20:15;5.57;;;4.60;;
77597;SDS011;66756;42.774;23.354;2023-04-24T07:22:41;5.30;;;4.28;;
77597;SDS011;66756;42.774;23.354;2023-04-24T07:25:07;5.32;;;4.05;;
77597;SDS011;66756;42.774;23.354;2023-04-24T07:27:34;5.18;;;3.85;;
77597;SDS011;66756;42.774;23.354;2023-04-24T07:30:01;9.38;;;4.68;;
77597;SDS011;66756;42.774;23.354;2023-04-24T07:32:27;7.43;;;5.35;;
77597;SDS011;66756;42.774;23.354;2023-04-24T07:34:53;4.95;;;4.28;;
77597;SDS011;66756;42.774;23.354;2023-04-24T07:37:20;6.55;;;4.72;;
77597;SDS011;66756;42.774;23.354;2023-04-24T07:39:46;6.63;;;4.88;;
77597;SDS011;66756;42.774;23.354;2023-04-24T07:42:12;6.45;;;4.05;;
77597;SDS011;66756;42.774;23.354;2023-04-24T07:44:38;5.80;;;5.22;;
77597;SDS011;66756;42.774;23.354;2023-04-24T07:47:04;6.22;;;4.78;;
77597;SDS011;66756;42.774;23.354;2023-04-24T07:49:30;5.55;;;4.70;;
77597;SDS011;66756;42.774;23.354;2023-04-24T07:51:56;5.43;;;4.10;;
77597;SDS011;66756;42.774;23.354;2023-04-24T07:54:25;5.72;;;4.35;;
77597;SDS011;66756;42.774;23.354;2023-04-24T07:56:51;5.57;;;4.95;;
77597;SDS011;66756;42.774;23.354;2023-04-24T07:59:17;5.95;;;3.58;;
77597;SDS011;66756;42.774;23.354;2023-04-24T08:01:43;5.57;;;4.63;;
77597;SDS011;66756;42.774;23.354;2023-04-24T08:04:09;4.97;;;4.55;;
77597;SDS011;66756;42.774;23.354;2023-04-24T08:06:35;6.55;;;5.32;;
77597;SDS011;66756;42.774;23.354;2023-04-24T08:09:01;7.45;;;6.75;;
77597;SDS011;66756;42.774;23.354;2023-04-24T08:11:27;5.63;;;4.63;;
77597;SDS011;66756;42.774;23.354;2023-04-24T08:13:53;5.55;;;5.05;;
77597;SDS011;66756;42.774;23.354;2023-04-24T08:16:20;4.95;;;4.20;;
77597;SDS011;66756;42.774;23.354;2023-04-24T08:18:46;5.43;;;4.65;;
77597;SDS011;66756;42.774;23.354;2023-04-24T08:21:12;8.00;;;5.43;;
77597;SDS011;66756;42.774;23.354;2023-04-24T08:23:42;5.82;;;5.22;;
77597;SDS011;66756;42.774;23.354;2023-04-24T08:26:08;6.38;;;4.72;;
77597;SDS011;66756;42.774;23.354;2023-04-24T08:28:35;7.13;;;4.60;;
77597;SDS011;66756;42.774;23.354;2023-04-24T08:31:01;7.47;;;5.65;;
77597;SDS011;66756;42.774;23.354;2023-04-24T08:33:27;6.70;;;5.28;;
77597;SDS011;66756;42.774;23.354;2023-04-24T08:35:59;6.50;;;4.43;;
77597;SDS011;66756;42.774;23.354;2023-04-24T08:38:25;5.85;;;4.60;;
77597;SDS011;66756;42.774;23.354;2023-04-24T08:40:51;7.97;;;5.63;;
77597;SDS011;66756;42.774;23.354;2023-04-24T08:43:17;6.18;;;3.22;;
77597;SDS011;66756;42.774;23.354;2023-04-24T08:45:44;4.38;;;3.33;;
77597;SDS011;66756;42.774;23.354;2023-04-24T08:48:10;8.77;;;5.25;;
77597;SDS011;66756;42.774;23.354;2023-04-24T08:50:37;5.38;;;4.68;;
77597;SDS011;66756;42.774;23.354;2023-04-24T08:53:06;7.32;;;5.75;;
77597;SDS011;66756;42.774;23.354;2023-04-24T08:55:33;5.80;;;5.25;;
77597;SDS011;66756;42.774;23.354;2023-04-24T08:57:59;6.05;;;5.40;;
77597;SDS011;66756;42.774;23.354;2023-04-24T09:00:25;6.30;;;5.30;;
77597;SDS011;66756;42.774;23.354;2023-04-24T09:02:52;5.68;;;5.15;;
77597;SDS011;66756;42.774;23.354;2023-04-24T09:05:19;7.15;;;5.63;;
77597;SDS011;66756;42.774;23.354;2023-04-24T09:07:53;6.35;;;3.58;;
77597;SDS011;66756;42.774;23.354;2023-04-24T09:10:19;7.00;;;5.75;;
77597;SDS011;66756;42.774;23.354;2023-04-24T09:12:46;6.05;;;5.20;;
77597;SDS011;66756;42.774;23.354;2023-04-24T09:15:12;8.02;;;5.47;;
77597;SDS011;66756;42.774;23.354;2023-04-24T09:17:38;7.78;;;4.95;;
77597;SDS011;66756;42.774;23.354;2023-04-24T09:20:04;7.18;;;5.55;;
77597;SDS011;66756;42.774;23.354;2023-04-24T09:22:31;6.97;;;5.60;;
77597;SDS011;66756;42.774;23.354;2023-04-24T09:25:04;5.35;;;4.75;;
77597;SDS011;66756;42.774;23.354;2023-04-24T09:27:31;5.78;;;4.75;;
77597;SDS011;66756;42.774;23.354;2023-04-24T09:29:58;7.80;;;5.22;;
77597;SDS011;66756;42.774;23.354;2023-04-24T09:32:24;8.15;;;6.68;;
77597;SDS011;66756;42.774;23.354;2023-04-24T09:35:05;5.47;;;4.85;;
77597;SDS011;66756;42.774;23.354;2023-04-24T09:37:34;8.00;;;5.57;;
77597;SDS011;66756;42.774;23.354;2023-04-24T09:40:34;6.43;;;5.82;;
77597;SDS011;66756;42.774;23.354;2023-04-24T09:42:54;6.38;;;5.78;;
77597;SDS011;66756;42.774;23.354;2023-04-24T09:45:20;6.95;;;5.88;;
77597;SDS011;66756;42.774;23.354;2023-04-24T09:47:47;7.38;;;6.50;;
77597;SDS011;66756;42.774;23.354;2023-04-24T09:50:17;6.63;;;6.00;;
77597;SDS011;66756;42.774;23.354;2023-04-24T09:52:47;8.05;;;6.43;;
77597;SDS011;66756;42.774;23.354;2023-04-24T09:55:21;7.32;;;6.63;;
77597;SDS011;66756;42.774;23.354;2023-04-24T09:57:51;6.82;;;5.88;;
77597;SDS011;66756;42.774;23.354;2023-04-24T10:00:18;7.32;;;5.90;;
77597;SDS011;66756;42.774;23.354;2023-04-24T10:02:45;5.82;;;4.05;;
77597;SDS011;66756;42.774;23.354;2023-04-24T10:05:15;8.57;;;5.00;;
77597;SDS011;66756;42.774;23.354;2023-04-24T10:07:41;6.88;;;5.32;;
77597;SDS011;66756;42.774;23.354;2023-04-24T10:10:08;8.40;;;5.03;;
77597;SDS011;66756;42.774;23.354;2023-04-24T10:12:35;6.32;;;5.30;;
77597;SDS011;66756;42.774;23.354;2023-04-24T10:15:02;5.57;;;4.80;;
77597;SDS011;66756;42.774;23.354;2023-04-24T10:17:28;6.88;;;6.22;;
77597;SDS011;66756;42.774;23.354;2023-04-24T10:19:54;5.93;;;5.30;;
77597;SDS011;66756;42.774;23.354;2023-04-24T10:22:21;5.68;;;4.75;;
77597;SDS011;66756;42.774;23.354;2023-04-24T10:24:47;8.43;;;3.35;;
77597;SDS011;66756;42.774;23.354;2023-04-24T10:27:14;6.00;;;5.40;;
77597;SDS011;66756;42.774;23.354;2023-04-24T10:29:41;7.78;;;5.30;;
77597;SDS011;66756;42.774;23.354;2023-04-24T10:32:08;8.38;;;4.18;;
77597;SDS011;66756;42.774;23.354;2023-04-24T10:34:35;7.78;;;5.35;;
77597;SDS011;66756;42.774;23.354;2023-04-24T10:37:01;5.45;;;4.95;;
77597;SDS011;66756;42.774;23.354;2023-04-24T10:39:28;6.65;;;5.20;;
77597;SDS011;66756;42.774;23.354;2023-04-24T10:41:55;6.28;;;5.35;;
77597;SDS011;66756;42.774;23.354;2023-04-24T10:44:22;7.28;;;4.82;;
77597;SDS011;66756;42.774;23.354;2023-04-24T10:46:53;6.53;;;5.60;;
77597;SDS011;66756;42.774;23.354;2023-04-24T10:49:30;7.15;;;5.93;;
77597;SDS011;66756;42.774;23.354;2023-04-24T10:51:59;7.22;;;5.30;;
77597;SDS011;66756;42.774;23.354;2023-04-24T10:54:36;7.05;;;6.35;;
77597;SDS011;66756;42.774;23.354;2023-04-24T11:00:12;6.07;;;5.47;;
77597;SDS011;66756;42.774;23.354;2023-04-24T11:02:39;7.35;;;5.38;;
77597;SDS011;66756;42.774;23.354;2023-04-24T11:05:12;5.22;;;4.72;;
77597;SDS011;66756;42.774;23.354;2023-04-24T11:10:25;7.10;;;5.10;;
77597;SDS011;66756;42.774;23.354;2023-04-24T11:12:52;6.97;;;5.50;;
77597;SDS011;66756;42.774;23.354;2023-04-24T11:15:18;5.75;;;4.80;;
77597;SDS011;66756;42.774;23.354;2023-04-24T11:17:44;7.13;;;5.60;;
77597;SDS011;66756;42.774;23.354;2023-04-24T11:20:11;5.80;;;4.97;;
77597;SDS011;66756;42.774;23.354;2023-04-24T11:25:10;6.95;;;4.90;;
77597;SDS011;66756;42.774;23.354;2023-04-24T11:30:06;6.97;;;5.43;;
77597;SDS011;66756;42.774;23.354;2023-04-24T11:37:37;5.18;;;4.05;;
77597;SDS011;66756;42.774;23.354;2023-04-24T11:40:07;5.80;;;5.15;;
77597;SDS011;66756;42.774;23.354;2023-04-24T11:42:37;4.15;;;3.75;;
77597;SDS011;66756;42.774;23.354;2023-04-24T11:45:10;3.35;;;2.88;;
77597;SDS011;66756;42.774;23.354;2023-04-24T11:47:37;3.70;;;2.28;;
77597;SDS011;66756;42.774;23.354;2023-04-24T11:50:04;4.93;;;4.45;;
77597;SDS011;66756;42.774;23.354;2023-04-24T11:52:30;3.70;;;3.40;;
77597;SDS011;66756;42.774;23.354;2023-04-24T11:54:56;3.35;;;3.05;;
77597;SDS011;66756;42.774;23.354;2023-04-24T11:57:24;3.92;;;3.58;;
77597;SDS011;66756;42.774;23.354;2023-04-24T11:59:52;4.55;;;4.13;;
77597;SDS011;66756;42.774;23.354;2023-04-24T12:02:25;4.50;;;4.05;;
77597;SDS011;66756;42.774;23.354;2023-04-24T12:04:55;4.75;;;4.18;;
77597;SDS011;66756;42.774;23.354;2023-04-24T12:07:22;6.38;;;3.83;;
77597;SDS011;66756;42.774;23.354;2023-04-24T12:09:59;4.30;;;3.15;;
77597;SDS011;66756;42.774;23.354;2023-04-24T12:12:26;4.13;;;3.83;;
77597;SDS011;66756;42.774;23.354;2023-04-24T12:14:53;5.05;;;3.60;;
77597;SDS011;66756;42.774;23.354;2023-04-24T12:17:29;4.15;;;3.45;;
77597;SDS011;66756;42.774;23.354;2023-04-24T12:19:59;4.15;;;3.78;;
77597;SDS011;66756;42.774;23.354;2023-04-24T12:22:26;3.58;;;3.08;;
77597;SDS011;66756;42.774;23.354;2023-04-24T12:25:02;5.88;;;4.38;;
77597;SDS011;66756;42.774;23.354;2023-04-24T12:27:32;4.65;;;4.25;;
77597;SDS011;66756;42.774;23.354;2023-04-24T12:29:59;4.68;;;3.67;;
77597;SDS011;66756;42.774;23.354;2023-04-24T12:32:25;4.78;;;3.03;;
77597;SDS011;66756;42.774;23.354;2023-04-24T12:34:55;3.20;;;2.47;;
77597;SDS011;66756;42.774;23.354;2023-04-24T12:37:24;4.25;;;3.80;;
77597;SDS011;66756;42.774;23.354;2023-04-24T12:40:00;4.68;;;3.95;;
77597;SDS011;66756;42.774;23.354;2023-04-24T12:42:27;4.30;;;4.00;;
77597;SDS011;66756;42.774;23.354;2023-04-24T12:44:57;4.07;;;3.78;;
77597;SDS011;66756;42.774;23.354;2023-04-24T12:47:24;3.80;;;3.45;;
77597;SDS011;66756;42.774;23.354;2023-04-24T12:49:51;3.83;;;3.42;;
77597;SDS011;66756;42.774;23.354;2023-04-24T12:52:27;4.68;;;4.00;;
77597;SDS011;66756;42.774;23.354;2023-04-24T12:54:57;4.55;;;4.15;;
77597;SDS011;66756;42.774;23.354;2023-04-24T12:57:24;5.07;;;4.57;;
77597;SDS011;66756;42.774;23.354;2023-04-24T12:59:52;4.57;;;2.33;;
77597;SDS011;66756;42.774;23.354;2023-04-24T13:02:18;4.90;;;4.50;;
77597;SDS011;66756;42.774;23.354;2023-04-24T13:04:44;5.13;;;4.63;;
77597;SDS011;66756;42.774;23.354;2023-04-24T13:07:11;5.50;;;5.10;;
77597;SDS011;66756;42.774;23.354;2023-04-24T13:09:38;4.30;;;3.90;;
77597;SDS011;66756;42.774;23.354;2023-04-24T13:12:04;4.22;;;3.70;;
77597;SDS011;66756;42.774;23.354;2023-04-24T13:14:30;4.05;;;3.65;;
77597;SDS011;66756;42.774;23.354;2023-04-24T13:16:56;4.97;;;3.97;;
77597;SDS011;66756;42.774;23.354;2023-04-24T13:19:26;4.30;;;4.00;;
77597;SDS011;66756;42.774;23.354;2023-04-24T13:21:53;4.72;;;2.42;;
77597;SDS011;66756;42.774;23.354;2023-04-24T13:24:20;4.22;;;3.70;;
77597;SDS011;66756;42.774;23.354;2023-04-24T13:26:49;4.30;;;3.90;;
77597;SDS011;66756;42.774;23.354;2023-04-24T13:29:16;4.88;;;3.83;;
77597;SDS011;66756;42.774;23.354;2023-04-24T13:31:42;4.72;;;3.70;;
77597;SDS011;66756;42.774;23.354;2023-04-24T13:34:08;2.45;;;2.03;;
77597;SDS011;66756;42.774;23.354;2023-04-24T13:36:34;4.03;;;3.10;;
77597;SDS011;66756;42.774;23.354;2023-04-24T13:39:00;5.03;;;3.70;;
77597;SDS011;66756;42.774;23.354;2023-04-24T13:41:26;4.35;;;3.47;;
77597;SDS011;66756;42.774;23.354;2023-04-24T13:43:52;3.45;;;3.15;;
77597;SDS011;66756;42.774;23.354;2023-04-24T13:46:18;6.75;;;3.78;;
77597;SDS011;66756;42.774;23.354;2023-04-24T13:48:44;4.80;;;2.03;;
77597;SDS011;66756;42.774;23.354;2023-04-24T13:51:10;2.65;;;2.38;;
77597;SDS011;66756;42.774;23.354;2023-04-24T13:53:36;3.80;;;3.33;;
77597;SDS011;66756;42.774;23.354;2023-04-24T13:56:03;4.10;;;3.10;;
77597;SDS011;66756;42.774;23.354;2023-04-24T13:58:30;3.13;;;2.80;;
77597;SDS011;66756;42.774;23.354;2023-04-24T14:00:57;3.22;;;2.88;;
77597;SDS011;66756;42.774;23.354;2023-04-24T14:03:23;5.75;;;3.45;;
77597;SDS011;66756;42.774;23.354;2023-04-24T14:05:49;4.13;;;2.42;;
77597;SDS011;66756;42.774;23.354;2023-04-24T14:08:15;3.58;;;3.28;;
77597;SDS011;66756;42.774;23.354;2023-04-24T14:10:42;3.58;;;2.83;;
77597;SDS011;66756;42.774;23.354;2023-04-24T14:13:08;4.00;;;3.42;;
77597;SDS011;66756;42.774;23.354;2023-04-24T14:15:37;3.10;;;2.70;;
77597;SDS011;66756;42.774;23.354;2023-04-24T14:18:03;3.50;;;3.20;;
77597;SDS011;66756;42.774;23.354;2023-04-24T14:20:30;3.30;;;3.00;;
77597;SDS011;66756;42.774;23.354;2023-04-24T14:22:56;3.95;;;2.60;;
77597;SDS011;66756;42.774;23.354;2023-04-24T14:25:25;3.45;;;3.15;;
77597;SDS011;66756;42.774;23.354;2023-04-24T14:27:51;3.42;;;3.13;;
77597;SDS011;66756;42.774;23.354;2023-04-24T14:30:18;3.78;;;3.47;;
77597;SDS011;66756;42.774;23.354;2023-04-24T14:32:44;3.05;;;2.58;;
77597;SDS011;66756;42.774;23.354;2023-04-24T14:35:10;4.88;;;3.45;;
77597;SDS011;66756;42.774;23.354;2023-04-24T14:37:36;5.20;;;2.60;;
77597;SDS011;66756;42.774;23.354;2023-04-24T14:40:03;4.07;;;3.28;;
77597;SDS011;66756;42.774;23.354;2023-04-24T14:42:32;3.42;;;2.83;;
77597;SDS011;66756;42.774;23.354;2023-04-24T14:44:58;4.63;;;2.95;;
77597;SDS011;66756;42.774;23.354;2023-04-24T14:47:25;4.22;;;3.35;;